createdAt,value
2023-04-23T00:00:25.767Z,73.24
2023-04-23T00:02:54.407Z,73.13
2023-04-23T00:05:23.414Z,74.28
2023-04-23T00:07:50.536Z,73.57
2023-04-23T00:10:18.302Z,73.40
2023-04-23T00:12:45.940Z,73.65
2023-04-23T00:15:14.242Z,74.63
2023-04-23T00:17:41.284Z,74.54
2023-04-23T00:20:09.318Z,72.83
2023-04-23T00:22:36.585Z,73.19
2023-04-23T00:25:03.958Z,72.91
2023-04-23T00:27:31.022Z,73.14
2023-04-23T00:29:58.190Z,73.47
2023-04-23T00:32:25.221Z,74.88
2023-04-23T00:34:52.378Z,75.17
2023-04-23T00:37:19.430Z,75.94
2023-04-23T00:40:54.594Z,76.78
2023-04-23T00:43:21.603Z,77.62
2023-04-23T00:45:49.507Z,77.42
2023-04-23T00:48:16.927Z,75.85
2023-04-23T00:50:43.931Z,75.20
2023-04-23T00:53:11.077Z,77.35
2023-04-23T00:55:38.216Z,77.10
2023-04-23T00:58:06.952Z,77.45
2023-04-23T01:00:40.077Z,78.37
2023-04-23T01:03:07.309Z,78.68
2023-04-23T01:05:34.462Z,79.17
2023-04-23T01:08:01.549Z,79.14
2023-04-23T01:10:28.599Z,78.41
2023-04-23T01:12:55.662Z,78.83
2023-04-23T01:15:22.660Z,78.64
2023-04-23T01:17:49.861Z,77.26
2023-04-23T01:20:17.554Z,77.70
2023-04-23T01:22:44.606Z,78.04
2023-04-23T01:25:11.751Z,78.36
2023-04-23T01:27:39.196Z,77.53
2023-04-23T01:30:07.711Z,77.58
2023-04-23T01:32:35.585Z,78.07
2023-04-23T01:35:04.708Z,78.23
2023-04-23T01:37:33.506Z,79.04
2023-04-23T01:40:01.208Z,78.51
2023-04-23T01:42:28.457Z,78.89
2023-04-23T01:44:55.587Z,79.21
2023-04-23T01:47:22.858Z,78.79
2023-04-23T01:49:50.064Z,78.97
2023-04-23T01:52:17.072Z,78.92
2023-04-23T01:54:44.244Z,78.84
2023-04-23T01:57:11.493Z,79.52
2023-04-23T01:59:40.509Z,79.24
2023-04-23T02:02:11.172Z,80.28
2023-04-23T02:04:41.248Z,80.39
2023-04-23T02:07:09.130Z,81.42
2023-04-23T02:09:36.174Z,81.11
2023-04-23T02:12:03.347Z,81.67
2023-04-23T02:14:30.561Z,81.85
2023-04-23T02:16:57.932Z,82.58
2023-04-23T02:19:25.092Z,82.74
2023-04-23T02:21:52.225Z,82.83
2023-04-23T02:24:19.295Z,82.64
2023-04-23T02:26:47.544Z,82.60
2023-04-23T02:29:15.735Z,83.04
2023-04-23T02:31:42.832Z,82.82
2023-04-23T02:34:09.876Z,83.62
2023-04-23T02:36:36.944Z,83.19
2023-04-23T02:39:04.289Z,83.83
2023-04-23T02:41:31.404Z,83.61
2023-04-23T02:43:58.684Z,83.69
2023-04-23T02:46:25.746Z,84.34
2023-04-23T02:48:52.762Z,85.04
2023-04-23T02:51:19.882Z,84.67
2023-04-23T02:53:47.008Z,84.88
2023-04-23T02:56:14.083Z,85.10
2023-04-23T02:58:41.206Z,85.23
2023-04-23T03:01:08.284Z,84.51
2023-04-23T03:03:35.770Z,85.37
2023-04-23T03:06:06.823Z,85.84
2023-04-23T03:08:34.085Z,85.80
2023-04-23T03:11:01.077Z,85.66
2023-04-23T03:13:28.392Z,85.22
2023-04-23T03:15:56.269Z,85.63
2023-04-23T03:18:23.449Z,86.41
2023-04-23T03:20:53.444Z,85.93
2023-04-23T03:23:20.572Z,85.86
2023-04-23T03:25:48.547Z,85.26
2023-04-23T03:28:15.714Z,85.94
2023-04-23T03:30:43.141Z,85.27
2023-04-23T03:33:10.212Z,85.51
2023-04-23T03:35:37.755Z,84.08
2023-04-23T03:38:09.459Z,83.81
2023-04-23T03:40:37.196Z,82.96
2023-04-23T03:43:06.905Z,83.59
2023-04-23T03:45:53.895Z,83.48
2023-04-23T03:48:21.899Z,83.42
2023-04-23T03:50:49.533Z,83.15
2023-04-23T03:53:31.986Z,83.39
2023-04-23T03:56:17.848Z,81.40
2023-04-23T03:58:54.503Z,81.62
2023-04-23T04:01:22.495Z,80.34
2023-04-23T04:03:50.915Z,79.84
2023-04-23T04:06:18.068Z,79.33
2023-04-23T04:08:45.107Z,78.59
2023-04-23T04:11:12.166Z,78.76
2023-04-23T04:13:39.169Z,79.21
2023-04-23T04:16:06.579Z,79.08
2023-04-23T04:18:33.700Z,79.00
2023-04-23T04:21:01.020Z,78.64
2023-04-23T04:23:28.804Z,77.47
2023-04-23T04:25:57.827Z,77.94
2023-04-23T04:28:25.452Z,77.24
2023-04-23T04:30:57.779Z,78.02
2023-04-23T04:33:26.135Z,78.33
2023-04-23T04:35:54.907Z,79.03
2023-04-23T04:38:22.424Z,77.98
2023-04-23T04:40:50.670Z,76.90
2023-04-23T04:43:18.585Z,77.26
2023-04-23T04:45:45.601Z,77.71
2023-04-23T04:48:12.705Z,77.17
2023-04-23T04:50:39.895Z,74.75
2023-04-23T04:53:06.870Z,75.37
2023-04-23T04:55:33.893Z,74.22
2023-04-23T04:58:00.944Z,73.00
2023-04-23T05:00:29.880Z,71.64
2023-04-23T05:03:00.102Z,71.02
2023-04-23T05:05:27.900Z,72.30
2023-04-23T05:07:55.237Z,69.91
2023-04-23T05:10:22.305Z,70.48
2023-04-23T05:12:52.093Z,70.58
2023-04-23T05:15:19.331Z,70.49
2023-04-23T05:17:46.532Z,68.88
2023-04-23T05:20:14.435Z,68.88
2023-04-23T05:22:42.807Z,66.88
2023-04-23T05:25:12.264Z,67.32
2023-04-23T05:27:40.029Z,66.14
2023-04-23T05:30:09.602Z,65.27
2023-04-23T05:32:37.218Z,64.90
2023-04-23T05:35:05.051Z,65.04
2023-04-23T05:37:32.185Z,64.70
2023-04-23T05:43:12.827Z,64.54
2023-04-23T05:45:39.886Z,64.37
2023-04-23T05:48:07.059Z,64.13
2023-04-23T05:50:34.058Z,62.42
2023-04-23T05:53:01.105Z,60.80
2023-04-23T05:55:28.161Z,61.65
2023-04-23T05:57:55.135Z,61.17
2023-04-23T06:00:22.209Z,60.57
2023-04-23T06:02:49.559Z,60.20
2023-04-23T06:05:16.973Z,60.25
2023-04-23T06:07:44.099Z,59.35
2023-04-23T06:10:43.652Z,60.33
2023-04-23T06:13:11.232Z,58.48
2023-04-23T06:15:38.818Z,57.03
2023-04-23T06:18:06.347Z,55.63
2023-04-23T06:20:33.433Z,54.90
2023-04-23T06:23:00.951Z,54.52
2023-04-23T06:25:27.947Z,55.27
2023-04-23T06:27:54.962Z,54.61
2023-04-23T06:30:25.613Z,54.37
2023-04-23T06:32:53.311Z,57.45
2023-04-23T06:35:20.751Z,52.98
2023-04-23T06:37:47.735Z,53.53
2023-04-23T06:40:15.158Z,53.21
2023-04-23T06:42:42.818Z,52.22
2023-04-23T06:45:17.861Z,52.43
2023-04-23T06:47:45.371Z,55.45
2023-04-23T06:50:12.486Z,55.31
2023-04-23T06:52:39.561Z,53.53
2023-04-23T06:55:07.446Z,52.27
2023-04-23T06:57:34.455Z,52.75
2023-04-23T07:00:01.549Z,53.09
2023-04-23T07:02:34.837Z,50.93
2023-04-23T07:05:34.090Z,50.79
2023-04-23T07:08:01.223Z,49.99
2023-04-23T07:10:28.486Z,50.75
2023-04-23T07:12:55.529Z,47.50
2023-04-23T07:15:22.752Z,47.41
2023-04-23T07:17:49.873Z,46.60
2023-04-23T07:20:16.953Z,49.32
2023-04-23T07:22:44.454Z,48.45
2023-04-23T07:25:11.558Z,47.73
2023-04-23T07:27:38.594Z,49.34
2023-04-23T07:30:06.708Z,50.41
2023-04-23T07:32:33.762Z,50.54
2023-04-23T07:35:00.866Z,48.02
2023-04-23T07:37:27.989Z,47.24
2023-04-23T07:39:55.041Z,47.89
2023-04-23T07:42:22.114Z,48.90
2023-04-23T07:44:49.127Z,52.36
2023-04-23T07:47:16.116Z,51.94
2023-04-23T07:49:43.906Z,54.04
2023-04-23T07:52:11.612Z,49.13
2023-04-23T07:54:38.728Z,53.19
2023-04-23T07:57:05.939Z,53.05
2023-04-23T07:59:33.052Z,50.82
2023-04-23T08:02:00.177Z,50.18
2023-04-23T08:04:27.447Z,48.47
2023-04-23T08:06:54.710Z,45.14
2023-04-23T08:09:21.814Z,48.05
2023-04-23T08:11:48.940Z,45.86
2023-04-23T08:14:16.126Z,45.61
2023-04-23T08:16:43.577Z,46.38
2023-04-23T08:19:10.653Z,46.93
2023-04-23T08:21:39.171Z,47.18
2023-04-23T08:24:08.099Z,47.38
2023-04-23T08:26:35.247Z,47.58
2023-04-23T08:29:03.439Z,48.76
2023-04-23T08:31:30.621Z,48.59
2023-04-23T08:33:58.107Z,47.90
2023-04-23T08:36:26.284Z,48.65
2023-04-23T08:38:53.326Z,49.14
2023-04-23T08:41:23.941Z,50.21
2023-04-23T08:44:02.633Z,48.78
2023-04-23T08:46:33.088Z,49.59
2023-04-23T08:49:03.091Z,51.06
2023-04-23T08:51:30.993Z,55.67
2023-04-23T08:54:03.105Z,60.54
2023-04-23T08:56:30.741Z,61.60
2023-04-23T08:58:58.899Z,65.98
2023-04-23T09:01:26.057Z,68.63
2023-04-23T09:03:54.252Z,69.50
2023-04-23T09:06:22.073Z,66.24
2023-04-23T09:08:49.231Z,69.84
2023-04-23T09:11:18.263Z,71.35
2023-04-23T09:13:45.830Z,71.92
2023-04-23T09:16:12.948Z,77.24
2023-04-23T09:18:40.131Z,82.28
2023-04-23T09:21:07.661Z,82.07
2023-04-23T09:23:34.910Z,84.44
2023-04-23T09:26:06.668Z,84.15
2023-04-23T09:28:37.921Z,84.90
2023-04-23T09:31:08.261Z,85.39
2023-04-23T09:33:36.485Z,85.82
2023-04-23T09:36:15.755Z,87.38
2023-04-23T09:38:42.759Z,84.49
2023-04-23T09:41:29.900Z,83.72
2023-04-23T10:16:35.589Z,88.70
2023-04-23T10:19:13.589Z,89.80
2023-04-23T10:21:50.413Z,87.76
2023-04-23T10:24:23.400Z,85.21
2023-04-23T10:26:54.192Z,89.30
2023-04-23T10:29:30.980Z,88.62
2023-04-23T10:32:00.529Z,75.46
2023-04-23T10:34:29.355Z,72.09
2023-04-23T10:36:57.705Z,78.49
2023-04-23T10:39:29.993Z,77.13
2023-04-23T10:41:59.002Z,62.62
2023-04-23T10:47:13.427Z,64.87
2023-04-23T10:49:40.942Z,65.68
2023-04-23T10:52:20.026Z,65.67
2023-04-23T10:54:50.711Z,67.08
2023-04-23T10:57:17.709Z,62.67
2023-04-23T10:59:56.478Z,58.79
2023-04-23T11:02:24.873Z,65.11
2023-04-23T11:04:57.480Z,60.66
2023-04-23T11:07:32.967Z,57.68
2023-04-23T11:10:11.188Z,53.61
2023-04-23T11:12:39.914Z,52.38
2023-04-23T11:15:12.374Z,47.88
2023-04-23T11:17:39.353Z,47.19
2023-04-23T11:20:14.274Z,52.96
2023-04-23T11:22:48.903Z,50.58
2023-04-23T11:25:28.705Z,46.71
2023-04-23T11:27:58.683Z,46.24
2023-04-23T11:30:30.610Z,47.95
2023-04-23T11:33:00.418Z,44.27
2023-04-23T11:35:28.990Z,44.01
2023-04-23T11:37:57.210Z,41.20
2023-04-23T11:40:24.492Z,45.94
2023-04-23T11:42:53.894Z,53.28
2023-04-23T11:45:29.031Z,52.45
2023-04-23T11:47:59.177Z,53.13
2023-04-23T11:50:31.164Z,52.58
2023-04-23T11:52:58.784Z,50.74
2023-04-23T11:55:26.667Z,50.56
2023-04-23T11:57:53.750Z,51.21
2023-04-23T12:00:23.506Z,51.94
2023-04-23T12:02:52.382Z,50.78
2023-04-23T12:05:29.776Z,48.67
2023-04-23T12:08:20.536Z,53.57
2023-04-23T12:10:52.025Z,45.77
2023-04-23T12:13:36.108Z,48.59
2023-04-23T12:16:05.313Z,49.14
2023-04-23T12:18:33.548Z,42.38
2023-04-23T12:21:07.939Z,40.89
2023-04-23T12:23:36.746Z,44.00
2023-04-23T12:26:04.658Z,46.42
2023-04-23T12:28:31.760Z,45.96
2023-04-23T12:31:03.103Z,42.62
2023-04-23T12:33:31.186Z,42.65
2023-04-23T12:35:58.627Z,43.87
2023-04-23T12:38:27.775Z,44.40
2023-04-23T12:40:56.818Z,44.47
2023-04-23T12:43:25.032Z,42.84
2023-04-23T12:45:53.120Z,44.21
2023-04-23T12:48:20.282Z,47.16
2023-04-23T12:50:48.499Z,45.62
2023-04-23T12:53:15.956Z,45.19
2023-04-23T12:55:44.425Z,47.06
2023-04-23T12:58:11.640Z,44.97
2023-04-23T13:00:39.130Z,45.97
2023-04-23T13:03:06.302Z,46.41
2023-04-23T13:05:33.514Z,44.48
2023-04-23T13:08:00.484Z,48.80
2023-04-23T13:10:27.989Z,45.35
2023-04-23T13:12:55.206Z,44.66
2023-04-23T13:15:22.206Z,44.52
2023-04-23T13:17:49.297Z,44.85
2023-04-23T13:20:16.304Z,45.30
2023-04-23T13:22:43.301Z,48.55
2023-04-23T13:25:10.723Z,50.96
2023-04-23T13:27:37.807Z,48.87
2023-04-23T13:30:06.178Z,47.04
2023-04-23T13:32:33.475Z,47.44
2023-04-23T13:35:02.973Z,48.96
2023-04-23T13:37:31.562Z,49.43
2023-04-23T13:39:58.656Z,46.78
2023-04-23T13:42:25.761Z,46.20
2023-04-23T13:44:52.926Z,49.10
2023-04-23T13:47:20.030Z,48.06
2023-04-23T13:49:48.085Z,50.30
2023-04-23T13:52:15.159Z,47.51
2023-04-23T13:54:42.504Z,45.51
2023-04-23T13:57:09.715Z,46.57
2023-04-23T13:59:36.765Z,46.42
2023-04-23T14:02:03.890Z,48.00
2023-04-23T14:04:31.231Z,47.13
2023-04-23T14:06:58.305Z,47.01
2023-04-23T14:09:25.433Z,46.16
2023-04-23T14:11:52.572Z,48.33
2023-04-23T14:14:19.689Z,48.33
2023-04-23T14:16:46.755Z,47.67
2023-04-23T14:19:13.937Z,46.27
2023-04-23T14:21:41.798Z,47.65
2023-04-23T14:24:16.916Z,49.06
2023-04-23T14:26:49.155Z,46.86
2023-04-23T14:29:28.045Z,49.63
2023-04-23T14:31:55.165Z,49.68
2023-04-23T14:34:22.588Z,49.90
2023-04-23T14:36:49.889Z,48.12
2023-04-23T14:39:17.227Z,47.21
2023-04-23T14:41:44.849Z,48.34
2023-04-23T14:44:11.973Z,46.43
2023-04-23T14:46:39.097Z,46.32
2023-04-23T14:49:06.631Z,46.61
2023-04-23T14:51:33.714Z,46.00
2023-04-23T14:54:00.870Z,46.16
2023-04-23T14:56:27.977Z,46.81
2023-04-23T14:58:55.085Z,47.26
2023-04-23T15:01:22.167Z,47.25
2023-04-23T15:03:49.538Z,47.37
2023-04-23T15:06:16.764Z,49.78
2023-04-23T15:08:43.771Z,47.42
2023-04-23T15:11:15.654Z,48.69
2023-04-23T15:13:42.649Z,48.66
2023-04-23T15:16:36.502Z,48.63
2023-04-23T15:19:11.791Z,50.02
2023-04-23T15:21:39.396Z,50.56
2023-04-23T15:24:07.983Z,51.29
2023-04-23T15:26:36.452Z,50.22
2023-04-23T15:29:04.794Z,49.76
2023-04-23T15:31:32.142Z,51.55
2023-04-23T15:33:59.264Z,49.57
2023-04-23T15:36:26.424Z,49.61
2023-04-23T15:38:53.401Z,49.03
2023-04-23T15:41:20.377Z,48.95
2023-04-23T15:43:48.948Z,48.60
2023-04-23T15:46:16.025Z,48.92
2023-04-23T15:48:44.142Z,48.91
2023-04-23T15:51:11.189Z,49.63
2023-04-23T15:53:38.303Z,51.92
2023-04-23T15:56:05.412Z,50.89
2023-04-23T15:58:32.540Z,53.56
2023-04-23T16:00:59.602Z,51.41
2023-04-23T16:03:26.897Z,51.52
2023-04-23T16:05:54.179Z,51.73
2023-04-23T16:08:22.081Z,52.05
2023-04-23T16:10:49.085Z,52.90
2023-04-23T16:13:16.143Z,53.46
2023-04-23T16:15:43.275Z,53.31
2023-04-23T16:18:10.394Z,51.38
2023-04-23T16:20:37.451Z,51.60
2023-04-23T16:23:04.541Z,52.27
2023-04-23T16:25:31.603Z,53.63
2023-04-23T16:27:58.988Z,54.84
2023-04-23T16:30:26.106Z,56.01
2023-04-23T16:32:53.252Z,55.77
2023-04-23T16:35:20.514Z,55.47
2023-04-23T16:37:47.586Z,54.25
2023-04-23T16:40:15.884Z,55.25
2023-04-23T16:42:43.668Z,54.70
2023-04-23T16:45:11.574Z,54.40
2023-04-23T16:47:38.801Z,54.62
2023-04-23T16:50:06.452Z,54.45
2023-04-23T16:52:33.494Z,54.53
2023-04-23T16:55:00.771Z,54.26
2023-04-23T16:57:28.375Z,54.03
2023-04-23T16:59:55.361Z,53.75
2023-04-23T17:02:22.375Z,53.85
2023-04-23T17:04:49.775Z,54.67
2023-04-23T17:07:17.242Z,55.52
2023-04-23T17:09:44.402Z,54.65
2023-04-23T17:12:11.566Z,54.56
2023-04-23T17:14:38.653Z,56.39
2023-04-23T17:17:05.746Z,56.88
2023-04-23T17:19:33.092Z,54.91
2023-04-23T17:22:01.308Z,54.74
2023-04-23T17:24:28.332Z,55.33
2023-04-23T17:26:55.402Z,55.63
2023-04-23T17:29:22.874Z,55.85
2023-04-23T17:31:50.437Z,55.04
2023-04-23T17:34:17.473Z,54.43
2023-04-23T17:36:44.509Z,56.97
2023-04-23T17:39:11.705Z,55.13
2023-04-23T17:41:38.800Z,57.20
2023-04-23T17:44:05.895Z,57.59
2023-04-23T17:46:33.083Z,57.35
2023-04-23T17:49:00.389Z,58.03
2023-04-23T17:51:27.618Z,57.56
2023-04-23T17:53:54.925Z,57.66
2023-04-23T17:56:22.292Z,59.48
2023-04-23T17:58:49.448Z,59.12
2023-04-23T18:01:17.867Z,59.10
2023-04-23T18:03:45.393Z,57.60
2023-04-23T18:06:12.519Z,55.95
2023-04-23T18:08:41.914Z,55.92
2023-04-23T18:11:09.744Z,58.09
2023-04-23T18:13:36.838Z,57.87
2023-04-23T18:16:04.011Z,58.66
2023-04-23T18:18:31.011Z,60.42
2023-04-23T18:20:58.283Z,61.28
2023-04-23T18:24:08.141Z,60.51
2023-04-23T18:26:35.204Z,59.87
2023-04-23T18:29:02.243Z,59.70
2023-04-23T18:31:29.552Z,58.26
2023-04-23T18:34:03.850Z,58.90
2023-04-23T18:36:33.132Z,59.50
2023-04-23T18:39:00.426Z,61.20
2023-04-23T18:41:31.062Z,63.97
2023-04-23T18:44:00.166Z,63.07
2023-04-23T18:46:30.361Z,64.09
2023-04-23T18:49:07.210Z,64.21
2023-04-23T18:51:43.208Z,63.21
2023-04-23T18:54:14.957Z,63.18
2023-04-23T18:56:42.238Z,65.51
2023-04-23T18:59:09.444Z,64.29
2023-04-23T19:01:36.667Z,63.69
2023-04-23T19:04:03.884Z,63.28
2023-04-23T19:06:31.535Z,63.83
2023-04-23T19:08:59.297Z,64.71
2023-04-23T19:11:30.345Z,63.22
2023-04-23T19:13:57.499Z,63.30
2023-04-23T19:16:24.545Z,62.81
2023-04-23T19:18:51.584Z,61.80
2023-04-23T19:21:18.714Z,62.21
2023-04-23T19:23:46.182Z,60.68
2023-04-23T19:26:46.042Z,59.77
2023-04-23T19:29:13.247Z,60.88
2023-04-23T19:31:40.358Z,62.98
2023-04-23T19:34:07.733Z,62.44
2023-04-23T19:36:34.949Z,61.48
2023-04-23T19:39:02.215Z,61.95
2023-04-23T19:41:29.306Z,62.15
2023-04-23T19:43:56.487Z,62.41
2023-04-23T19:46:23.541Z,61.00
2023-04-23T19:48:50.591Z,61.71
2023-04-23T19:51:19.753Z,59.79
2023-04-23T19:53:46.809Z,60.93
2023-04-23T19:56:15.266Z,62.52
2023-04-23T19:58:42.732Z,60.25
2023-04-23T20:01:10.767Z,61.86
2023-04-23T20:03:38.051Z,63.13
2023-04-23T20:06:05.218Z,63.42
2023-04-23T20:08:42.051Z,61.42
2023-04-23T20:11:11.924Z,60.82
2023-04-23T20:13:38.993Z,61.22
2023-04-23T20:16:05.966Z,61.16
2023-04-23T20:18:35.756Z,60.25
2023-04-23T20:21:02.875Z,60.85
2023-04-23T20:23:29.871Z,60.71
2023-04-23T20:26:28.452Z,61.55
2023-04-23T20:28:55.692Z,62.83
2023-04-23T20:31:22.903Z,62.13
2023-04-23T20:33:50.025Z,62.09
2023-04-23T20:36:17.214Z,62.67
2023-04-23T20:39:53.578Z,62.74
2023-04-23T20:42:21.434Z,63.34
2023-04-23T20:44:49.090Z,63.35
2023-04-23T20:47:16.596Z,63.28
2023-04-23T20:49:44.086Z,63.41
2023-04-23T20:52:13.596Z,63.54
2023-04-23T20:54:40.754Z,64.50
2023-04-23T20:57:07.934Z,65.45
2023-04-23T20:59:35.054Z,65.22
2023-04-23T21:02:02.136Z,65.38
2023-04-23T21:04:29.716Z,65.64
2023-04-23T21:06:56.990Z,66.60
2023-04-23T21:09:24.023Z,66.52
2023-04-23T21:11:51.267Z,65.84
2023-04-23T21:14:18.425Z,65.55
2023-04-23T21:16:45.456Z,64.33
2023-04-23T21:20:21.459Z,64.52
2023-04-23T21:22:48.531Z,64.98
2023-04-23T21:25:15.513Z,64.88
2023-04-23T21:27:46.005Z,64.72
2023-04-23T21:30:35.298Z,64.83
2023-04-23T21:33:02.335Z,65.13
2023-04-23T21:35:29.621Z,65.25
2023-04-23T21:37:56.675Z,65.87
2023-04-23T21:40:29.262Z,65.32
2023-04-23T21:42:56.418Z,67.38
2023-04-23T21:45:24.041Z,67.80
2023-04-23T21:47:51.725Z,67.86
2023-04-23T21:50:19.135Z,67.41
2023-04-23T21:52:46.267Z,66.66
2023-04-23T21:55:13.837Z,66.12
2023-04-23T21:57:40.850Z,66.81
2023-04-23T22:00:11.393Z,66.34
2023-04-23T22:02:46.764Z,66.79
2023-04-23T22:05:17.175Z,65.96
2023-04-23T22:07:44.752Z,66.34
2023-04-23T22:10:13.239Z,65.80
2023-04-23T22:12:41.476Z,65.97
2023-04-23T22:15:11.032Z,67.63
2023-04-23T22:17:39.151Z,66.86
2023-04-23T22:20:08.036Z,66.88
2023-04-23T22:22:36.207Z,66.30
2023-04-23T22:25:07.938Z,67.12
2023-04-23T22:27:36.590Z,67.19
2023-04-23T22:30:08.147Z,67.71
2023-04-23T22:32:36.277Z,66.95
2023-04-23T22:35:04.075Z,67.58
2023-04-23T22:37:34.316Z,68.01
2023-04-23T22:40:01.704Z,66.21
2023-04-23T22:42:28.693Z,66.30
2023-04-23T22:44:55.755Z,66.49
2023-04-23T22:47:22.952Z,66.30
2023-04-23T22:49:50.197Z,66.30
2023-04-23T22:52:17.420Z,66.20
2023-04-23T22:55:54.444Z,66.27
2023-04-23T22:58:21.572Z,68.77
2023-04-23T23:00:48.692Z,68.05
2023-04-23T23:03:15.917Z,67.48
2023-04-23T23:05:43.126Z,67.60
2023-04-23T23:08:10.212Z,68.94
2023-04-23T23:10:37.244Z,68.14
2023-04-23T23:13:04.539Z,66.64
2023-04-23T23:15:31.743Z,66.08
2023-04-23T23:17:58.866Z,66.64
2023-04-23T23:20:26.606Z,66.34
2023-04-23T23:22:53.787Z,65.66
2023-04-23T23:25:20.970Z,66.07
2023-04-23T23:27:47.956Z,65.75
2023-04-23T23:30:15.758Z,65.59
2023-04-23T23:32:42.857Z,65.81
2023-04-23T23:35:10.118Z,66.30
2023-04-23T23:37:37.258Z,66.12
2023-04-23T23:40:05.846Z,65.61
2023-04-23T23:42:32.894Z,65.64
2023-04-23T23:45:31.976Z,68.02
2023-04-23T23:47:59.570Z,67.37
2023-04-23T23:50:26.723Z,66.14
2023-04-23T23:52:54.493Z,66.11
2023-04-23T23:55:21.564Z,65.38
2023-04-23T23:57:48.629Z,65.27
